Time;durP1;ratioP1;P1;durP2;ratioP2;P2;SDS_P1;SDS_P2;PMS_P1;PMS_P2;Temp;Humidity;BMP_temperature;BMP_pressure;BME280_temperature;BME280_humidity;BME280_pressure;Samples;Min_cycle;Max_cycle;Signal;HPM_P1;HPM_P2
2022/06/12 00:01:46;;;;;;;3.15;2.30;;;22.60;46.20;;;;;;6205558;28;20502;-71
2022/06/12 00:04:47;;;;;;;3.25;2.45;;;22.60;46.10;;;;;;6223847;28;20026;-71
2022/06/12 00:07:47;;;;;;;3.00;2.40;;;22.60;46.30;;;;;;6225805;28;20057;-71
2022/06/12 00:10:50;;;;;;;2.42;2.17;;;22.60;46.20;;;;;;6223085;28;20289;-71
2022/06/12 00:13:58;;;;;;;2.70;2.38;;;22.60;46.10;;;;;;6201789;28;20034;-71
2022/06/12 00:16:59;;;;;;;3.08;2.50;;;22.60;46.10;;;;;;6212947;28;20121;-71
2022/06/12 00:20:00;;;;;;;2.80;2.40;;;22.60;46.10;;;;;;6226068;28;20083;-71
2022/06/12 00:23:06;;;;;;;3.22;2.35;;;22.60;46.10;;;;;;6206868;28;20038;-71
2022/06/12 00:26:08;;;;;;;2.33;2.10;;;22.60;46.10;;;;;;6204710;28;20021;-71
2022/06/12 00:29:12;;;;;;;2.85;2.03;;;22.60;46.10;;;;;;6225271;28;20030;-71
2022/06/12 00:32:15;;;;;;;3.08;2.33;;;22.60;46.00;;;;;;6214020;28;20018;-71
2022/06/12 00:35:18;;;;;;;2.53;1.90;;;22.60;46.10;;;;;;6200873;28;20037;-71
2022/06/12 00:38:19;;;;;;;2.67;2.30;;;22.60;46.00;;;;;;6200843;28;20513;-71
2022/06/12 00:41:20;;;;;;;2.78;2.38;;;22.60;46.00;;;;;;6203614;28;20057;-71
2022/06/12 00:44:25;;;;;;;3.50;2.25;;;22.60;46.00;;;;;;6225298;28;20033;-71
2022/06/12 00:47:26;;;;;;;2.83;2.25;;;22.70;46.10;;;;;;6214531;28;20022;-71
2022/06/12 00:50:29;;;;;;;2.30;1.92;;;22.60;45.90;;;;;;6196451;28;20057;-71
2022/06/12 00:53:37;;;;;;;2.42;2.13;;;22.60;45.90;;;;;;6219821;28;20384;-72
2022/06/12 00:56:47;;;;;;;2.78;2.17;;;22.60;45.90;;;;;;6222145;28;20247;-71
2022/06/12 00:59:56;;;;;;;2.53;2.20;;;22.60;45.90;;;;;;6198075;28;20121;-71
2022/06/12 01:02:58;;;;;;;2.67;2.10;;;22.60;45.90;;;;;;6206500;28;20018;-71
2022/06/12 01:09:28;;;;;;;2.80;2.35;;;22.70;45.90;;;;;;6224387;28;20034;-71
2022/06/12 01:12:32;;;;;;;3.30;2.22;;;22.70;46.00;;;;;;6217352;28;20026;-71
2022/06/12 01:15:59;;;;;;;2.50;2.13;;;22.60;45.80;;;;;;6198407;28;20033;-71
2022/06/12 01:19:00;;;;;;;2.65;2.00;;;22.70;45.90;;;;;;6213322;28;20041;-71
2022/06/12 01:22:16;;;;;;;2.35;2.00;;;22.70;45.90;;;;;;6218514;28;20494;-71
2022/06/12 01:25:24;;;;;;;2.42;2.13;;;22.60;45.80;;;;;;6196685;28;20019;-71
2022/06/12 01:28:48;;;;;;;2.67;2.20;;;22.70;45.90;;;;;;6210415;28;20018;-71
2022/06/12 01:32:19;;;;;;;2.20;1.90;;;22.70;45.80;;;;;;6220613;28;20070;-71
2022/06/12 01:35:44;;;;;;;2.20;2.00;;;22.70;45.80;;;;;;6197365;28;20141;-71
2022/06/12 01:38:58;;;;;;;2.97;2.30;;;22.70;45.80;;;;;;6211598;28;20038;-71
2022/06/12 01:42:17;;;;;;;3.17;2.40;;;22.70;45.80;;;;;;6212703;28;20052;-71
2022/06/12 01:45:43;;;;;;;2.50;2.08;;;22.70;45.80;;;;;;6196778;28;20026;-71
2022/06/12 01:48:56;;;;;;;2.53;2.00;;;22.70;45.80;;;;;;6209270;28;20077;-71
2022/06/12 01:52:16;;;;;;;2.55;2.00;;;22.70;45.80;;;;;;6221478;28;20037;-71
2022/06/12 01:55:40;;;;;;;3.42;2.13;;;22.70;45.80;;;;;;6196187;28;20026;-71
2022/06/12 01:58:53;;;;;;;2.47;1.90;;;22.70;45.80;;;;;;6207075;28;20112;-71
2022/06/12 02:02:20;;;;;;;3.08;2.20;;;22.70;45.80;;;;;;6220469;28;20444;-71
2022/06/12 02:05:33;;;;;;;2.38;1.88;;;22.70;45.80;;;;;;6168308;28;20043;-71
2022/06/12 02:08:40;;;;;;;2.85;2.30;;;22.70;45.80;;;;;;6204975;28;20022;-72
2022/06/12 02:15:36;;;;;;;3.03;2.25;;;22.70;45.70;;;;;;6196351;28;20034;-71
2022/06/12 02:18:50;;;;;;;3.03;2.13;;;22.70;45.70;;;;;;6204229;28;20077;-71
2022/06/12 02:21:57;;;;;;;2.47;1.92;;;22.70;45.60;;;;;;6220604;28;20044;-71
2022/06/12 02:25:05;;;;;;;3.72;2.05;;;22.70;45.60;;;;;;6201426;28;20019;-71
2022/06/12 02:28:27;;;;;;;2.65;1.95;;;22.70;45.60;;;;;;6197649;28;20022;-71
2022/06/12 02:31:41;;;;;;;2.45;1.88;;;22.70;45.60;;;;;;6219665;28;20072;-71
2022/06/12 02:34:47;;;;;;;3.03;2.30;;;22.70;45.60;;;;;;6204820;28;20080;-71
2022/06/12 02:37:51;;;;;;;3.20;2.22;;;22.70;45.50;;;;;;6196130;28;20721;-71
2022/06/12 02:40:59;;;;;;;2.50;2.30;;;22.70;45.60;;;;;;6194582;28;20482;-71
2022/06/12 02:44:07;;;;;;;2.83;2.10;;;22.70;45.50;;;;;;6202279;28;20712;-71
2022/06/12 02:47:16;;;;;;;2.60;2.10;;;22.70;45.80;;;;;;6219843;28;20103;-71
2022/06/12 02:50:21;;;;;;;2.80;2.05;;;22.70;45.50;;;;;;6200917;28;20030;-71
2022/06/12 02:53:46;;;;;;;2.78;2.10;;;22.70;45.50;;;;;;6202793;28;20021;-71
2022/06/12 02:57:05;;;;;;;2.40;1.95;;;22.70;45.60;;;;;;6194921;28;20476;-71
2022/06/12 03:00:16;;;;;;;2.65;2.08;;;22.70;45.60;;;;;;6201994;28;20026;-71
2022/06/12 03:03:26;;;;;;;2.55;2.10;;;22.70;45.50;;;;;;6193696;28;20393;-71
2022/06/12 03:06:28;;;;;;;2.28;2.08;;;22.70;45.50;;;;;;6194705;28;20018;-71
2022/06/12 03:09:29;;;;;;;2.92;2.00;;;22.70;45.40;;;;;;6199810;28;20457;-71
2022/06/12 03:12:29;;;;;;;3.70;2.17;;;22.70;45.40;;;;;;6220501;28;20026;-71
2022/06/12 03:15:39;;;;;;;2.65;1.98;;;22.70;45.40;;;;;;6219791;28;20050;-71
2022/06/12 03:18:45;;;;;;;3.30;2.35;;;22.70;45.40;;;;;;6219415;28;20365;-71
2022/06/12 03:21:57;;;;;;;2.28;2.00;;;22.70;45.40;;;;;;6195310;28;20030;-70
2022/06/12 03:25:05;;;;;;;2.03;1.83;;;22.70;45.40;;;;;;6205492;28;20025;-71
2022/06/12 03:28:22;;;;;;;2.25;1.83;;;22.70;45.40;;;;;;6220484;28;20080;-71
2022/06/12 03:31:37;;;;;;;2.53;2.05;;;22.80;45.50;;;;;;6196985;28;20022;-71
2022/06/12 03:35:00;;;;;;;2.30;1.90;;;22.80;45.40;;;;;;6193542;28;20014;-71
2022/06/12 03:38:07;;;;;;;2.88;2.20;;;22.70;45.30;;;;;;6193347;28;20038;-71
2022/06/12 03:41:19;;;;;;;2.30;1.90;;;22.70;45.30;;;;;;6211536;28;20041;-71
2022/06/12 03:44:41;;;;;;;2.47;2.03;;;22.70;45.40;;;;;;6215340;28;20018;-71
2022/06/12 03:47:51;;;;;;;2.75;1.98;;;22.70;45.40;;;;;;6194169;28;20023;-71
2022/06/12 03:51:15;;;;;;;2.55;2.13;;;22.70;45.40;;;;;;6207678;28;20467;-71
2022/06/12 03:54:22;;;;;;;2.60;2.10;;;22.70;45.30;;;;;;6215939;28;20123;-71
2022/06/12 03:57:53;;;;;;;3.35;2.25;;;22.70;45.30;;;;;;6193405;28;20544;-71
2022/06/12 04:00:55;;;;;;;2.10;1.90;;;22.80;45.40;;;;;;6193444;28;20026;-71
2022/06/12 04:03:57;;;;;;;2.97;2.10;;;22.80;45.40;;;;;;6194171;28;20034;-71
2022/06/12 04:07:01;;;;;;;2.83;2.17;;;22.70;45.30;;;;;;6215821;28;20029;-71
2022/06/12 04:10:04;;;;;;;1.97;1.70;;;22.80;45.30;;;;;;6213222;28;20220;-72
2022/06/12 04:13:09;;;;;;;2.45;2.13;;;22.70;46.00;;;;;;6193632;28;20052;-71
2022/06/12 04:16:45;;;;;;;2.45;2.20;;;22.70;45.30;;;;;;6206519;28;20026;-71
2022/06/12 04:20:03;;;;;;;2.80;2.17;;;22.80;45.30;;;;;;6217756;28;20519;-71
2022/06/12 04:23:22;;;;;;;2.65;2.03;;;22.80;45.30;;;;;;6194895;28;20030;-71
2022/06/12 04:26:32;;;;;;;2.80;2.20;;;22.80;45.20;;;;;;6207994;28;20186;-71
2022/06/12 04:29:38;;;;;;;2.40;1.88;;;22.80;45.30;;;;;;6219075;28;20061;-71
2022/06/12 04:32:38;;;;;;;3.28;2.20;;;22.80;46.00;;;;;;6195539;28;20022;-71
2022/06/12 04:35:49;;;;;;;3.05;2.05;;;22.80;45.20;;;;;;6193880;28;20105;-71
2022/06/12 04:38:49;;;;;;;2.15;1.77;;;22.80;45.20;;;;;;6193685;28;20082;-71
2022/06/12 04:41:51;;;;;;;2.25;2.00;;;22.80;45.20;;;;;;6208526;28;20029;-71
2022/06/12 04:44:52;;;;;;;3.33;2.47;;;22.80;45.20;;;;;;6217747;28;20557;-71
2022/06/12 04:47:53;;;;;;;2.05;1.75;;;22.80;45.20;;;;;;6194492;28;20429;-71
2022/06/12 04:50:54;;;;;;;2.15;1.90;;;22.80;45.20;;;;;;6202531;28;20022;-71
2022/06/12 04:53:55;;;;;;;2.45;1.92;;;22.80;45.20;;;;;;6221570;28;20029;-71
2022/06/12 04:56:57;;;;;;;2.33;2.10;;;22.80;45.20;;;;;;6208668;28;20088;-71
2022/06/12 05:00:34;;;;;;;2.83;2.20;;;22.80;45.20;;;;;;6198795;28;20562;-72
2022/06/12 05:03:36;;;;;;;2.15;1.70;;;22.80;45.20;;;;;;6197935;28;20090;-71
2022/06/12 05:06:37;;;;;;;2.45;1.88;;;22.80;45.10;;;;;;6207250;28;20030;-71
2022/06/12 05:09:41;;;;;;;2.00;1.80;;;22.80;45.20;;;;;;6221788;28;20026;-71
2022/06/12 05:12:41;;;;;;;2.80;1.85;;;22.80;45.10;;;;;;6204513;28;20057;-71
2022/06/12 05:15:44;;;;;;;2.25;1.70;;;22.80;45.10;;;;;;6199713;28;20022;-71
2022/06/12 05:18:45;;;;;;;2.45;1.85;;;22.80;45.10;;;;;;6222794;28;20034;-71
2022/06/12 05:21:46;;;;;;;2.15;1.73;;;22.80;45.10;;;;;;6213008;28;20034;-71
2022/06/12 05:24:47;;;;;;;3.13;1.80;;;22.80;45.10;;;;;;6196818;28;20381;-71
2022/06/12 05:27:48;;;;;;;2.10;1.80;;;22.80;45.10;;;;;;6213663;28;20037;-71
2022/06/12 05:30:49;;;;;;;2.25;1.67;;;22.80;45.10;;;;;;6220552;28;20072;-71
2022/06/12 05:33:50;;;;;;;2.13;1.92;;;22.80;45.10;;;;;;6196693;28;20026;-71
2022/06/12 05:36:50;;;;;;;1.92;1.70;;;22.80;45.10;;;;;;6196347;28;20433;-71
2022/06/12 05:39:51;;;;;;;2.72;2.00;;;22.80;45.10;;;;;;6196708;28;20402;-71
2022/06/12 05:42:52;;;;;;;2.17;1.95;;;22.80;45.10;;;;;;6212558;28;20440;-71
2022/06/12 05:45:53;;;;;;;2.20;1.92;;;22.80;45.10;;;;;;6222082;28;20084;-71
2022/06/12 05:48:54;;;;;;;2.28;1.83;;;22.80;45.10;;;;;;6195243;28;20085;-70
2022/06/12 05:51:55;;;;;;;2.75;2.00;;;22.80;45.10;;;;;;6203847;28;20057;-70
2022/06/12 05:54:55;;;;;;;2.33;1.85;;;22.80;45.00;;;;;;6222007;28;20055;-71
2022/06/12 05:57:56;;;;;;;2.50;1.80;;;22.80;45.00;;;;;;6207656;28;20501;-71
2022/06/12 06:00:58;;;;;;;2.33;2.10;;;22.80;45.00;;;;;;6196968;28;20046;-71
2022/06/12 06:03:59;;;;;;;1.95;1.60;;;22.80;45.00;;;;;;6197829;28;20027;-71
2022/06/12 06:07:00;;;;;;;2.28;1.70;;;22.80;44.90;;;;;;6201983;28;20026;-71
2022/06/12 06:10:03;;;;;;;2.10;1.70;;;22.80;44.90;;;;;;6220589;28;20464;-71
2022/06/12 06:13:04;;;;;;;2.25;1.83;;;22.80;45.00;;;;;;6207055;28;20241;-71
2022/06/12 06:16:07;;;;;;;1.90;1.67;;;22.80;44.90;;;;;;6219866;28;20053;-71
2022/06/12 06:19:08;;;;;;;2.53;1.80;;;22.80;44.90;;;;;;6198885;28;20441;-71
2022/06/12 06:22:09;;;;;;;2.47;1.92;;;22.80;44.90;;;;;;6200293;28;20038;-71
2022/06/12 06:25:12;;;;;;;1.77;1.60;;;22.80;44.90;;;;;;6219776;28;20529;-71
2022/06/12 06:28:14;;;;;;;2.55;1.75;;;22.80;44.90;;;;;;6208027;28;20496;-71
2022/06/12 06:31:15;;;;;;;1.85;1.58;;;22.80;44.90;;;;;;6196680;28;20026;-71
2022/06/12 06:34:15;;;;;;;2.05;1.60;;;22.80;44.90;;;;;;6196773;28;20939;-71
2022/06/12 06:37:16;;;;;;;2.35;1.83;;;22.80;45.60;;;;;;6199150;28;20508;-71
2022/06/12 06:40:19;;;;;;;2.35;2.03;;;22.80;44.80;;;;;;6220911;28;20076;-71
2022/06/12 06:43:20;;;;;;;2.10;1.60;;;22.80;44.80;;;;;;6208308;28;20026;-71
2022/06/12 06:46:21;;;;;;;2.30;1.80;;;22.80;44.90;;;;;;6195215;28;20495;-71
2022/06/12 06:49:22;;;;;;;2.03;1.60;;;22.80;44.80;;;;;;6213643;28;20496;-71
2022/06/12 06:52:23;;;;;;;2.33;1.83;;;22.80;44.80;;;;;;6219030;28;20274;-71
2022/06/12 06:55:24;;;;;;;2.05;1.70;;;22.80;44.80;;;;;;6218943;28;20392;-71
2022/06/12 06:58:27;;;;;;;1.88;1.65;;;22.80;44.80;;;;;;6210039;28;20057;-71
2022/06/12 07:01:27;;;;;;;2.25;2.05;;;22.80;44.80;;;;;;6177319;28;20049;-71
2022/06/12 07:04:28;;;;;;;2.00;1.73;;;22.80;44.70;;;;;;6195296;28;20031;-71
2022/06/12 07:07:29;;;;;;;2.17;1.77;;;22.80;44.70;;;;;;6194937;28;20019;-71
2022/06/12 07:10:32;;;;;;;2.92;1.60;;;22.80;44.80;;;;;;6219027;28;20026;-71
2022/06/12 07:13:33;;;;;;;2.10;1.83;;;22.80;44.70;;;;;;6209164;28;20118;-71
2022/06/12 07:16:35;;;;;;;1.73;1.63;;;22.80;44.70;;;;;;6194697;28;20035;-71
2022/06/12 07:19:36;;;;;;;2.40;1.70;;;22.80;44.70;;;;;;6210663;28;20113;-71
2022/06/12 07:22:37;;;;;;;2.42;1.70;;;22.80;44.70;;;;;;6218696;28;20026;-71
2022/06/12 07:25:43;;;;;;;3.05;1.85;;;22.80;44.70;;;;;;6195691;28;20112;-71
2022/06/12 07:28:43;;;;;;;2.05;1.60;;;22.80;44.70;;;;;;6202066;28;20327;-71
2022/06/12 07:31:45;;;;;;;1.52;1.27;;;22.80;44.70;;;;;;6219145;28;20108;-71
2022/06/12 07:34:47;;;;;;;1.75;1.50;;;22.80;44.60;;;;;;6202432;28;20485;-71
2022/06/12 07:37:48;;;;;;;2.17;1.70;;;22.80;44.60;;;;;;6193757;28;20049;-71
2022/06/12 07:40:57;;;;;;;1.50;1.40;;;22.80;44.60;;;;;;6193646;28;20033;-71
2022/06/12 07:43:57;;;;;;;2.25;1.88;;;22.80;44.60;;;;;;6202743;28;20018;-71
2022/06/12 07:46:58;;;;;;;2.85;1.77;;;22.80;44.60;;;;;;6219039;28;20389;-71
2022/06/12 07:49:59;;;;;;;1.88;1.63;;;22.80;44.60;;;;;;6202869;28;20058;-71
2022/06/12 07:53:00;;;;;;;1.92;1.58;;;22.80;44.60;;;;;;6197313;28;20033;-71
2022/06/12 07:56:01;;;;;;;1.70;1.50;;;22.80;44.60;;;;;;6194564;28;20035;-71
2022/06/12 07:59:03;;;;;;;1.65;1.55;;;22.80;44.60;;;;;;6193396;28;20377;-71
2022/06/12 08:02:05;;;;;;;2.28;1.60;;;22.80;44.50;;;;;;6193702;28;20532;-71
2022/06/12 08:05:07;;;;;;;1.60;1.40;;;22.80;44.50;;;;;;6209221;28;20565;-71
2022/06/12 08:08:07;;;;;;;2.17;1.73;;;22.90;44.60;;;;;;6219130;28;20018;-71
2022/06/12 08:11:08;;;;;;;2.08;1.67;;;22.90;44.60;;;;;;6197191;28;20382;-71
2022/06/12 08:14:09;;;;;;;1.92;1.40;;;22.80;44.50;;;;;;6198949;28;20029;-71
2022/06/12 08:17:10;;;;;;;2.00;1.63;;;22.80;44.50;;;;;;6195435;28;20031;-71
2022/06/12 08:20:25;;;;;;;1.80;1.60;;;22.80;44.70;;;;;;6207079;28;20029;-71
2022/06/12 08:23:28;;;;;;;1.88;1.67;;;22.80;44.50;;;;;;6219163;28;20499;-71
2022/06/12 08:26:32;;;;;;;2.40;1.55;;;22.80;44.40;;;;;;6200300;28;20054;-71
2022/06/12 08:29:32;;;;;;;1.55;1.30;;;22.90;44.50;;;;;;6193881;28;20030;-71
2022/06/12 08:32:35;;;;;;;1.40;1.30;;;22.80;44.40;;;;;;6211752;28;20483;-71
2022/06/12 08:35:36;;;;;;;1.83;1.40;;;22.90;44.50;;;;;;6199016;28;20058;-71
2022/06/12 08:38:37;;;;;;;1.80;1.50;;;22.80;44.40;;;;;;6197360;28;20041;-71
2022/06/12 08:41:50;;;;;;;1.90;1.50;;;22.80;44.40;;;;;;6219213;28;20022;-71
2022/06/12 08:44:53;;;;;;;1.83;1.33;;;22.80;44.40;;;;;;6214504;28;20023;-71
2022/06/12 08:48:00;;;;;;;1.75;1.60;;;22.90;44.40;;;;;;6214107;28;20026;-71
2022/06/12 08:51:12;;;;;;;1.80;1.50;;;22.80;44.30;;;;;;6211891;28;20129;-71
2022/06/12 08:54:15;;;;;;;1.48;1.30;;;22.80;44.30;;;;;;6220129;28;20026;-71
2022/06/12 08:57:22;;;;;;;1.83;1.35;;;22.80;44.30;;;;;;6196487;28;20026;-71
2022/06/12 09:00:27;;;;;;;3.00;1.30;;;22.80;44.30;;;;;;6196016;28;20030;-71
2022/06/12 09:03:31;;;;;;;;;;;22.80;44.40;;;;;;6196519;28;20019;-71
2022/06/12 09:06:41;;;;;;;1.52;1.38;;;22.90;44.60;;;;;;6197834;28;19905;-72
2022/06/12 09:10:03;;;;;;;2.10;1.45;;;22.90;44.70;;;;;;6198274;28;20149;-71
2022/06/12 09:13:22;;;;;;;2.53;1.67;;;22.90;44.50;;;;;;6196993;28;20680;-71
2022/06/12 09:16:29;;;;;;;3.28;1.92;;;22.90;44.50;;;;;;6209659;28;20143;-71
2022/06/12 09:20:13;;;;;;;2.45;1.80;;;22.90;44.50;;;;;;6219627;28;20040;-71
2022/06/12 09:23:38;;;;;;;3.45;1.77;;;22.80;44.40;;;;;;6198077;28;20452;-72
2022/06/12 09:27:02;;;;;;;2.80;1.70;;;22.90;44.50;;;;;;6195746;28;20034;-70
2022/06/12 09:30:14;;;;;;;9.85;2.60;;;22.80;45.20;;;;;;6197132;28;20019;-70
2022/06/12 09:33:34;;;;;;;98.68;18.98;;;22.70;45.90;;;;;;6195867;28;20026;-70
2022/06/12 09:36:41;;;;;;;31.75;6.60;;;22.60;46.30;;;;;;6193695;28;20065;-70
2022/06/12 09:39:53;;;;;;;60.45;12.65;;;22.60;46.40;;;;;;6219259;28;20046;-70
2022/06/12 09:43:11;;;;;;;159.20;31.65;;;22.60;46.90;;;;;;6195544;28;20397;-70
2022/06/12 09:47:03;;;;;;;107.93;23.88;;;22.60;47.60;;;;;;6204817;28;20026;-69
2022/06/12 09:50:21;;;;;;;101.82;20.58;;;22.50;47.30;;;;;;6107748;28;20035;-70
2022/06/12 09:53:40;;;;;;;101.75;22.55;;;22.50;47.00;;;;;;6206462;28;20022;-70
2022/06/12 09:56:47;;;;;;;104.18;22.65;;;22.50;47.30;;;;;;6191139;28;20049;-70
2022/06/12 09:59:58;;;;;;;97.82;22.02;;;22.60;47.40;;;;;;6195953;28;20054;-70
2022/06/12 10:03:26;;;;;;;109.22;23.92;;;22.60;47.40;;;;;;6218027;28;20022;-70
2022/06/12 10:06:42;;;;;;;101.25;24.67;;;22.50;48.20;;;;;;6201469;28;20527;-69
2022/06/12 10:09:53;;;;;;;101.97;24.52;;;22.50;48.20;;;;;;6195972;28;20379;-70
2022/06/12 10:13:02;;;;;;;85.30;22.45;;;22.50;48.30;;;;;;6215436;28;20042;-70
2022/06/12 10:16:11;;;;;;;90.45;24.33;;;22.50;48.20;;;;;;6207944;28;20056;-70
2022/06/12 10:19:34;;;;;;;82.15;23.42;;;22.50;48.30;;;;;;6203336;28;20880;-70
2022/06/12 10:22:37;;;;;;;85.75;23.83;;;22.50;48.60;;;;;;6197874;28;20034;-70
2022/06/12 10:25:51;;;;;;;81.95;21.75;;;22.50;48.90;;;;;;6217318;28;20084;-70
2022/06/12 10:29:06;;;;;;;83.47;22.45;;;22.50;48.80;;;;;;6193805;28;20030;-70
2022/06/12 10:32:13;;;;;;;71.90;21.80;;;22.50;48.80;;;;;;6193226;28;20065;-70
2022/06/12 10:35:16;;;;;;;76.47;21.52;;;22.40;48.90;;;;;;6193612;28;20064;-71
2022/06/12 10:38:19;;;;;;;81.90;20.92;;;22.40;49.10;;;;;;6212787;28;20400;-70
2022/06/12 10:41:27;;;;;;;73.75;21.33;;;22.40;49.20;;;;;;6217876;28;20026;-70
2022/06/12 10:44:30;;;;;;;68.22;20.40;;;22.40;49.30;;;;;;6218748;28;20026;-70
2022/06/12 10:47:41;;;;;;;72.68;19.42;;;22.40;49.50;;;;;;6219389;28;20388;-71
2022/06/12 10:50:53;;;;;;;66.20;19.40;;;22.40;49.50;;;;;;6219358;28;20101;-70
2022/06/12 10:54:07;;;;;;;64.72;18.88;;;22.30;49.50;;;;;;6210618;28;20049;-70
2022/06/12 10:57:35;;;;;;;61.37;18.30;;;22.30;49.50;;;;;;6211695;28;20469;-70
2022/06/12 11:00:42;;;;;;;64.40;18.15;;;22.40;49.70;;;;;;6193561;28;20038;-71
2022/06/12 11:04:01;;;;;;;49.88;17.27;;;22.30;49.60;;;;;;6212592;28;20030;-70
2022/06/12 11:07:20;;;;;;;56.97;17.98;;;22.30;49.70;;;;;;6211869;28;20102;-70
2022/06/12 11:11:04;;;;;;;49.95;17.45;;;22.30;49.70;;;;;;6194059;28;20028;-70
2022/06/12 11:14:08;;;;;;;47.10;16.42;;;22.30;49.70;;;;;;6180465;28;20053;-70
2022/06/12 11:17:36;;;;;;;45.55;15.13;;;22.30;49.80;;;;;;6212945;28;20026;-70
2022/06/12 11:21:06;;;;;;;48.42;16.05;;;22.30;49.80;;;;;;6202320;28;20036;-70
2022/06/12 11:24:22;;;;;;;44.63;15.38;;;22.30;49.80;;;;;;6193924;28;20316;-70
2022/06/12 11:28:30;;;;;;;42.97;15.88;;;22.30;49.80;;;;;;6198470;28;20523;-70
2022/06/12 11:31:54;;;;;;;45.00;15.80;;;22.30;49.90;;;;;;6102631;29;20054;-69
2022/06/12 11:35:10;;;;;;;52.72;15.95;;;22.30;49.80;;;;;;6136460;28;20113;-70
2022/06/12 11:38:40;;;;;;;36.35;14.40;;;22.30;49.90;;;;;;6203612;28;20555;-70
2022/06/12 11:41:54;;;;;;;41.47;14.13;;;22.30;49.90;;;;;;6195113;28;20029;-70
2022/06/12 11:45:24;;;;;;;40.92;13.88;;;22.30;49.90;;;;;;6218120;28;20022;-70
2022/06/12 11:48:45;;;;;;;33.88;13.05;;;22.20;50.00;;;;;;6206414;28;20034;-70
2022/06/12 11:52:04;;;;;;;35.25;13.32;;;22.20;49.90;;;;;;6193927;28;20022;-70
2022/06/12 11:55:36;;;;;;;38.33;13.63;;;22.20;49.90;;;;;;6216381;28;20033;-71
2022/06/12 11:58:40;;;;;;;39.88;12.63;;;22.20;50.10;;;;;;6170477;28;20121;-71
2022/06/12 12:01:54;;;;;;;38.50;13.00;;;22.20;50.10;;;;;;6189638;28;20030;-71
2022/06/12 12:05:13;;;;;;;31.17;11.90;;;22.20;50.00;;;;;;6198100;28;20030;-71
2022/06/12 12:08:20;;;;;;;39.80;13.48;;;22.20;50.10;;;;;;6210204;28;20030;-70
2022/06/12 12:11:29;;;;;;;31.02;12.23;;;22.20;50.10;;;;;;6192774;28;20386;-70
2022/06/12 12:14:33;;;;;;;38.83;12.63;;;22.20;50.10;;;;;;6193383;28;20482;-70
2022/06/12 12:17:39;;;;;;;29.93;12.17;;;22.20;50.20;;;;;;6193631;28;20076;-70
2022/06/12 12:20:43;;;;;;;34.38;12.18;;;22.20;50.20;;;;;;6217052;28;20037;-71
2022/06/12 12:23:47;;;;;;;27.75;11.40;;;22.20;50.20;;;;;;6216463;28;20079;-71
2022/06/12 12:26:49;;;;;;;34.05;11.57;;;22.20;50.30;;;;;;6201204;28;20113;-70
2022/06/12 12:29:51;;;;;;;23.48;10.30;;;22.20;50.20;;;;;;6208716;28;20149;-70
2022/06/12 12:32:54;;;;;;;31.58;11.38;;;22.20;50.30;;;;;;6200550;28;20036;-70
2022/06/12 12:42:44;;;;;;;26.73;10.98;;;22.20;50.40;;;;;;6216430;28;20038;-70
2022/06/12 12:45:45;;;;;;;26.55;10.52;;;22.20;50.40;;;;;;6193162;28;20058;-70
2022/06/12 12:48:53;;;;;;;24.45;10.25;;;22.20;50.50;;;;;;6198174;28;20412;-70
2022/06/12 12:52:19;;;;;;;26.40;10.13;;;22.20;50.40;;;;;;6217186;28;20026;-70
2022/06/12 12:55:30;;;;;;;21.95;9.80;;;22.20;50.40;;;;;;6210680;28;20029;-70
2022/06/12 12:58:35;;;;;;;24.38;9.27;;;22.20;50.50;;;;;;6214650;28;20448;-70
2022/06/12 13:01:40;;;;;;;;;;;22.10;50.40;;;;;;6192790;28;20674;-70
2022/06/12 13:04:41;;;;;;;22.03;9.63;;;22.20;50.50;;;;;;6204208;28;20385;-70
2022/06/12 13:07:45;;;;;;;23.55;10.25;;;22.10;50.40;;;;;;6217043;28;20272;-69
2022/06/12 13:10:54;;;;;;;23.98;8.85;;;22.20;50.50;;;;;;6217187;28;20026;-70
2022/06/12 13:14:01;;;;;;;22.75;8.43;;;22.20;50.50;;;;;;6218266;28;20469;-69
2022/06/12 13:17:40;;;;;;;25.05;9.45;;;22.10;50.50;;;;;;6196095;28;20023;-70
2022/06/12 13:20:44;;;;;;;22.10;9.07;;;22.10;50.50;;;;;;6189704;28;20057;-70
2022/06/12 13:24:04;;;;;;;21.13;8.23;;;22.10;50.50;;;;;;6220867;28;20053;-69
2022/06/12 13:27:32;;;;;;;17.30;8.30;;;22.20;50.50;;;;;;6221585;28;20436;-69
2022/06/12 13:30:42;;;;;;;23.08;9.32;;;22.20;50.60;;;;;;6216773;28;20049;-70
2022/06/12 13:33:52;;;;;;;20.88;8.50;;;22.20;50.60;;;;;;6221167;28;20227;-70
2022/06/12 13:36:53;;;;;;;20.33;7.63;;;22.20;50.60;;;;;;6195412;28;20046;-70
2022/06/12 13:39:55;;;;;;;17.65;8.18;;;22.20;50.60;;;;;;6204089;28;20088;-69
2022/06/12 13:43:11;;;;;;;19.08;8.95;;;22.20;50.60;;;;;;6221253;28;20030;-69
2022/06/12 13:46:30;;;;;;;20.33;8.13;;;22.20;50.50;;;;;;6202017;28;20022;-70
2022/06/12 13:49:35;;;;;;;13.10;6.78;;;22.10;50.60;;;;;;6199161;28;20152;-69
2022/06/12 13:52:54;;;;;;;14.93;7.80;;;22.10;50.60;;;;;;6220986;28;20102;-70
2022/06/12 13:55:58;;;;;;;16.65;7.38;;;22.10;50.60;;;;;;6205764;28;20030;-70
2022/06/12 13:58:59;;;;;;;25.08;7.45;;;22.10;50.60;;;;;;6195028;28;20034;-69
2022/06/12 14:02:19;;;;;;;51.70;7.70;;;22.10;50.80;;;;;;6195997;28;20671;-69
2022/06/12 14:05:24;;;;;;;19.38;7.13;;;22.20;51.30;;;;;;6197279;28;20030;-69
2022/06/12 14:08:27;;;;;;;22.48;7.45;;;22.10;51.00;;;;;;6195804;28;20076;-69
2022/06/12 14:11:28;;;;;;;17.27;6.40;;;22.10;50.80;;;;;;6196236;28;20030;-70
2022/06/12 14:14:50;;;;;;;25.45;7.18;;;22.10;50.70;;;;;;6195823;28;20081;-69
2022/06/12 14:17:56;;;;;;;21.17;6.90;;;22.20;50.60;;;;;;6212953;28;20022;-69
2022/06/12 14:21:04;;;;;;;24.23;7.00;;;22.20;50.80;;;;;;6207222;28;20015;-69
2022/06/12 14:24:14;;;;;;;18.23;7.43;;;22.20;50.80;;;;;;6208243;28;20030;-69
2022/06/12 14:27:30;;;;;;;13.38;6.82;;;22.20;50.80;;;;;;6218385;28;20022;-69
2022/06/12 14:30:45;;;;;;;14.63;6.80;;;22.20;50.80;;;;;;6211264;28;20034;-69
2022/06/12 14:33:53;;;;;;;12.93;6.43;;;22.20;50.70;;;;;;6195163;28;20034;-69
2022/06/12 14:36:57;;;;;;;16.17;6.60;;;22.20;50.70;;;;;;6195504;28;20057;-69
2022/06/12 14:39:59;;;;;;;13.88;6.25;;;22.20;50.70;;;;;;6194994;28;20576;-69
2022/06/12 14:43:11;;;;;;;15.05;6.65;;;22.20;50.70;;;;;;6218226;28;20477;-69
2022/06/12 14:46:15;;;;;;;15.35;6.35;;;22.20;50.70;;;;;;6210273;28;20077;-69
2022/06/12 14:49:19;;;;;;;13.40;6.35;;;22.10;50.70;;;;;;6195009;28;20092;-69
2022/06/12 14:52:23;;;;;;;13.88;6.60;;;22.20;50.70;;;;;;6211695;28;20250;-69
2022/06/12 14:55:23;;;;;;;14.55;6.00;;;22.10;50.70;;;;;;6216465;28;20105;-69
2022/06/12 14:58:28;;;;;;;11.18;5.68;;;22.20;50.80;;;;;;6193508;28;20040;-69
2022/06/12 15:01:28;;;;;;;9.45;5.20;;;22.10;50.70;;;;;;6203097;28;20385;-69
2022/06/12 15:04:29;;;;;;;12.00;5.72;;;22.20;50.80;;;;;;6217582;28;20033;-69
2022/06/12 15:07:30;;;;;;;11.00;5.25;;;22.20;50.80;;;;;;6199887;28;20034;-69
2022/06/12 15:10:30;;;;;;;9.95;5.13;;;22.20;50.80;;;;;;6192224;28;20026;-69
2022/06/12 15:13:31;;;;;;;9.35;5.35;;;22.20;50.70;;;;;;6193229;28;20027;-69
2022/06/12 15:16:34;;;;;;;9.13;5.00;;;22.10;50.60;;;;;;6202146;28;20064;-69
2022/06/12 15:19:34;;;;;;;13.20;5.68;;;22.20;50.70;;;;;;6216153;28;20041;-69
2022/06/12 15:22:35;;;;;;;13.70;5.75;;;22.10;50.60;;;;;;6202826;28;20746;-69
2022/06/12 15:32:19;;;;;;;11.95;5.50;;;22.20;50.90;;;;;;6202118;28;20430;-68
2022/06/12 15:35:20;;;;;;;10.70;5.25;;;22.20;50.90;;;;;;6217472;28;20592;-68
2022/06/12 15:38:21;;;;;;;12.32;5.50;;;22.20;51.00;;;;;;6195928;28;20219;-69
2022/06/12 15:41:21;;;;;;;11.75;4.95;;;22.20;50.90;;;;;;6196989;28;20083;-69
2022/06/12 15:44:22;;;;;;;13.75;5.50;;;22.10;50.90;;;;;;6218261;28;20040;-69
2022/06/12 15:47:23;;;;;;;11.10;5.00;;;22.20;50.90;;;;;;6206922;28;20034;-68
2022/06/12 15:50:23;;;;;;;9.07;5.15;;;22.20;50.90;;;;;;6193160;28;20018;-68
2022/06/12 15:53:24;;;;;;;13.73;5.40;;;22.20;50.90;;;;;;6212376;28;20040;-69
2022/06/12 15:56:26;;;;;;;9.18;4.70;;;22.10;50.90;;;;;;6215256;28;20535;-69
2022/06/12 15:59:31;;;;;;;10.60;5.38;;;22.10;50.90;;;;;;6174705;28;20080;-69
2022/06/12 16:02:32;;;;;;;7.50;4.65;;;22.10;50.90;;;;;;6192541;28;20061;-69
2022/06/12 16:05:33;;;;;;;9.75;5.03;;;22.10;50.90;;;;;;6205569;28;20056;-69
2022/06/12 16:08:34;;;;;;;8.00;4.38;;;22.10;50.90;;;;;;6198234;28;20066;-69
2022/06/12 16:11:34;;;;;;;9.23;4.68;;;22.10;50.90;;;;;;6191682;28;20065;-69
2022/06/12 16:14:35;;;;;;;9.13;4.57;;;22.10;50.90;;;;;;6192240;28;20034;-69
2022/06/12 16:17:36;;;;;;;10.18;5.38;;;22.10;50.90;;;;;;6201011;28;20072;-69
2022/06/12 16:20:36;;;;;;;8.77;4.53;;;22.10;50.90;;;;;;6216448;28;20196;-69
2022/06/12 16:23:37;;;;;;;10.27;4.72;;;22.10;51.00;;;;;;6211007;28;20033;-69
2022/06/12 16:26:37;;;;;;;9.40;4.57;;;22.10;50.90;;;;;;6216288;28;20408;-69
2022/06/12 16:29:39;;;;;;;8.93;4.30;;;22.10;50.90;;;;;;6216533;28;20022;-69
2022/06/12 16:32:39;;;;;;;9.13;4.55;;;22.20;51.10;;;;;;6209234;28;20110;-69